createdAt,value
2018-12-22T00:01:07.773Z,62.20
2018-12-22T00:05:11.894Z,62.51
2018-12-22T00:13:35.973Z,63.06
2018-12-22T00:17:40.089Z,63.11
2018-12-22T00:21:44.213Z,62.99
2018-12-22T00:25:48.281Z,63.05
2018-12-22T00:29:52.365Z,63.95
2018-12-22T00:33:56.594Z,64.34
2018-12-22T00:38:00.693Z,64.07
2018-12-22T00:42:04.786Z,64.09
2018-12-22T00:46:09.006Z,63.57
2018-12-22T00:50:13.146Z,63.16
2018-12-22T00:54:18.139Z,63.75
2018-12-22T00:58:30.534Z,63.49
2018-12-22T01:02:28.589Z,63.24
2018-12-22T01:06:32.653Z,64.02
2018-12-22T01:10:36.764Z,63.84
2018-12-22T01:14:40.884Z,63.66
2018-12-22T01:18:45.081Z,63.35
2018-12-22T01:22:49.199Z,64.22
2018-12-22T01:26:53.369Z,63.72
2018-12-22T01:30:57.459Z,63.94
2018-12-22T01:35:01.564Z,63.71
2018-12-22T01:39:06.757Z,64.03
2018-12-22T01:43:11.721Z,63.41
2018-12-22T01:47:15.768Z,63.88
2018-12-22T01:51:19.869Z,63.21
2018-12-22T01:55:24.021Z,63.28
2018-12-22T01:59:28.179Z,63.21
2018-12-22T02:03:32.309Z,63.74
2018-12-22T02:07:36.389Z,63.32
2018-12-22T02:11:40.472Z,63.06
2018-12-22T02:15:44.602Z,63.13
2018-12-22T02:19:48.746Z,63.08
2018-12-22T02:23:52.836Z,63.74
2018-12-22T02:27:56.915Z,63.80
2018-12-22T02:32:01.011Z,63.37
2018-12-22T02:36:05.171Z,63.79
2018-12-22T02:40:09.636Z,63.72
2018-12-22T02:44:13.800Z,63.68
2018-12-22T02:48:17.919Z,63.51
2018-12-22T02:52:22.013Z,63.33
2018-12-22T02:56:26.199Z,64.75
2018-12-22T03:00:30.272Z,64.37
2018-12-22T03:04:34.431Z,63.81
2018-12-22T03:08:38.521Z,63.42
2018-12-22T03:12:42.677Z,63.08
2018-12-22T03:16:47.321Z,63.00
2018-12-22T03:20:51.415Z,63.62
2018-12-22T03:24:55.503Z,63.44
2018-12-22T03:28:59.630Z,63.39
2018-12-22T03:33:03.719Z,63.44
2018-12-22T03:37:07.906Z,63.17
2018-12-22T03:41:11.998Z,63.56
2018-12-22T03:45:16.131Z,63.74
2018-12-22T03:49:20.193Z,63.44
2018-12-22T03:53:24.301Z,62.38
2018-12-22T03:57:28.394Z,62.57
2018-12-22T04:01:32.480Z,61.63
2018-12-22T04:05:36.571Z,61.07
2018-12-22T04:09:40.661Z,61.45
2018-12-22T04:13:44.757Z,61.19
2018-12-22T04:17:48.913Z,61.08
2018-12-22T04:21:53.615Z,61.07
2018-12-22T04:25:57.698Z,60.62
2018-12-22T04:30:01.851Z,60.13
2018-12-22T04:34:05.942Z,60.38
2018-12-22T04:38:10.095Z,59.96
2018-12-22T04:42:14.192Z,60.39
2018-12-22T04:46:18.285Z,60.57
2018-12-22T04:50:22.381Z,60.25
2018-12-22T04:54:26.457Z,59.27
2018-12-22T04:58:30.545Z,59.77
2018-12-22T05:02:34.638Z,59.86
2018-12-22T05:06:38.724Z,59.71
2018-12-22T05:10:42.808Z,59.80
2018-12-22T05:14:46.893Z,59.09
2018-12-22T05:18:50.978Z,58.66
2018-12-22T05:22:55.106Z,58.40
2018-12-22T05:26:59.197Z,57.94
2018-12-22T05:31:03.336Z,57.76
2018-12-22T05:35:07.579Z,57.57
2018-12-22T05:39:11.686Z,57.38
2018-12-22T05:43:15.810Z,56.76
2018-12-22T05:47:19.934Z,56.95
2018-12-22T05:51:24.014Z,57.00
2018-12-22T05:55:28.137Z,56.75
2018-12-22T05:59:32.218Z,56.08
2018-12-22T06:03:36.330Z,56.99
2018-12-22T06:07:40.437Z,55.73
2018-12-22T06:11:44.534Z,55.80
2018-12-22T06:15:48.724Z,55.39
2018-12-22T06:19:52.885Z,55.97
2018-12-22T06:23:56.999Z,55.95
2018-12-22T06:28:01.081Z,56.63
2018-12-22T06:32:05.263Z,57.13
2018-12-22T06:36:10.561Z,57.56
2018-12-22T06:40:14.650Z,57.14
2018-12-22T06:44:18.760Z,56.57
2018-12-22T06:48:22.896Z,56.81
2018-12-22T06:52:26.990Z,56.46
2018-12-22T06:56:31.146Z,56.89
2018-12-22T07:00:35.261Z,56.73
2018-12-22T07:04:39.333Z,56.30
2018-12-22T07:08:43.425Z,55.76
2018-12-22T07:12:47.517Z,55.74
2018-12-22T07:16:51.642Z,55.34
2018-12-22T07:20:55.871Z,55.47
2018-12-22T07:25:00.034Z,56.08
2018-12-22T07:29:04.330Z,56.74
2018-12-22T07:33:08.417Z,56.80
2018-12-22T07:37:12.503Z,58.51
2018-12-22T07:41:16.610Z,58.40
2018-12-22T07:45:20.703Z,59.33
2018-12-22T07:49:24.806Z,60.12
2018-12-22T07:53:28.919Z,59.93
2018-12-22T07:57:32.990Z,59.97
2018-12-22T08:01:37.107Z,59.56
2018-12-22T08:05:41.213Z,58.34
2018-12-22T08:09:45.302Z,58.69
2018-12-22T08:13:49.434Z,58.28
2018-12-22T08:17:53.518Z,57.15
2018-12-22T08:21:57.741Z,55.93
2018-12-22T08:26:01.855Z,56.75
2018-12-22T08:30:08.844Z,56.13
2018-12-22T08:34:12.936Z,56.08
2018-12-22T08:38:17.010Z,56.72
2018-12-22T08:42:21.246Z,56.49
2018-12-22T08:46:25.513Z,56.60
2018-12-22T08:50:32.550Z,57.39
2018-12-22T08:54:36.637Z,58.97
2018-12-22T08:58:40.733Z,59.15
2018-12-22T09:02:44.874Z,59.46
2018-12-22T09:06:48.965Z,59.05
2018-12-22T09:10:53.058Z,58.60
2018-12-22T09:14:57.211Z,59.27
2018-12-22T09:19:01.325Z,59.74
2018-12-22T09:23:05.438Z,60.02
2018-12-22T09:27:09.661Z,60.67
2018-12-22T09:31:13.740Z,59.69
2018-12-22T09:35:17.837Z,59.48
2018-12-22T09:39:21.893Z,59.79
2018-12-22T09:43:25.996Z,60.26
2018-12-22T09:47:30.223Z,59.92
2018-12-22T09:51:34.278Z,59.67
2018-12-22T09:55:39.353Z,59.46
2018-12-22T09:59:43.444Z,59.09
2018-12-22T10:03:47.530Z,59.04
2018-12-22T10:07:51.626Z,58.72
2018-12-22T10:11:55.775Z,58.74
2018-12-22T10:15:59.882Z,57.34
2018-12-22T10:20:07.164Z,56.87
2018-12-22T10:24:11.236Z,56.72
2018-12-22T10:28:15.338Z,56.35
2018-12-22T10:32:19.480Z,56.10
2018-12-22T10:36:23.590Z,55.98
2018-12-22T10:40:27.685Z,55.72
2018-12-22T10:44:31.750Z,55.37
2018-12-22T10:48:35.841Z,55.18
2018-12-22T10:52:39.923Z,54.33
2018-12-22T10:56:44.072Z,54.21
2018-12-22T11:00:48.157Z,53.74
2018-12-22T11:04:52.224Z,52.88
2018-12-22T11:08:56.317Z,53.04
2018-12-22T11:13:00.405Z,53.54
2018-12-22T11:17:04.557Z,53.54
2018-12-22T11:21:08.712Z,54.05
2018-12-22T11:25:15.191Z,52.42
2018-12-22T11:29:19.798Z,52.60
2018-12-22T11:33:23.885Z,52.92
2018-12-22T11:37:27.984Z,54.40
2018-12-22T11:41:32.070Z,54.84
2018-12-22T11:45:36.159Z,56.34
2018-12-22T11:49:40.592Z,56.74
2018-12-22T11:53:44.679Z,57.90
2018-12-22T11:57:48.756Z,57.48
2018-12-22T12:01:52.833Z,58.29
2018-12-22T12:05:56.912Z,57.55
2018-12-22T12:10:01.001Z,57.25
2018-12-22T12:14:05.162Z,58.32
2018-12-22T12:22:49.070Z,56.08
2018-12-22T12:35:46.892Z,53.17
2018-12-22T12:39:50.977Z,49.41
2018-12-22T12:43:55.095Z,49.64
2018-12-22T12:47:59.190Z,50.70
2018-12-22T12:52:03.279Z,52.92
2018-12-22T12:56:07.523Z,52.63
2018-12-22T13:00:19.165Z,53.12
2018-12-22T13:04:23.352Z,53.10
2018-12-22T13:08:27.424Z,53.51
2018-12-22T13:12:51.349Z,53.12
2018-12-22T13:16:55.457Z,52.70
2018-12-22T13:25:49.062Z,52.62
2018-12-22T13:29:53.131Z,52.87
2018-12-22T13:33:57.250Z,52.96
2018-12-22T13:42:48.778Z,53.67
2018-12-22T13:46:52.928Z,53.28
2018-12-22T13:50:57.136Z,53.04
2018-12-22T13:55:01.263Z,53.14
2018-12-22T14:03:49.286Z,52.32
2018-12-22T14:07:53.394Z,53.08
2018-12-22T14:11:57.519Z,52.86
2018-12-22T14:16:01.896Z,53.85
2018-12-22T14:24:49.091Z,53.14
2018-12-22T14:28:53.209Z,53.95
2018-12-22T14:32:57.287Z,53.68
2018-12-22T14:37:01.389Z,53.35
2018-12-22T14:45:49.278Z,53.99
2018-12-22T14:49:53.382Z,56.58
2018-12-22T14:53:57.462Z,57.22
2018-12-22T14:58:02.880Z,57.17
2018-12-22T15:02:06.976Z,57.31
2018-12-22T15:06:11.065Z,57.49
2018-12-22T15:10:15.229Z,56.47
2018-12-22T15:14:19.318Z,56.08
2018-12-22T15:18:23.414Z,55.73
2018-12-22T15:22:27.507Z,56.46
2018-12-22T15:26:31.602Z,56.43
2018-12-22T15:30:35.673Z,56.03
2018-12-22T15:34:39.763Z,56.62
2018-12-22T15:38:43.858Z,56.66
2018-12-22T15:42:48.937Z,56.14
2018-12-22T15:46:53.095Z,56.01
2018-12-22T15:50:57.215Z,56.54
2018-12-22T15:55:01.310Z,56.85
2018-12-22T15:59:05.399Z,56.74
2018-12-22T16:03:09.498Z,56.42
2018-12-22T16:07:13.598Z,56.86
2018-12-22T16:11:17.698Z,57.84
2018-12-22T16:15:25.341Z,58.12
2018-12-22T16:19:29.430Z,58.69
2018-12-22T16:23:48.190Z,59.25
2018-12-22T16:28:16.089Z,58.92
2018-12-22T16:32:20.226Z,59.26
2018-12-22T16:36:24.328Z,59.35
2018-12-22T16:40:28.760Z,58.90
2018-12-22T16:44:32.860Z,59.30
2018-12-22T16:48:37.110Z,59.42
2018-12-22T16:52:41.238Z,59.14
2018-12-22T16:56:45.402Z,58.10
2018-12-22T17:05:37.334Z,58.30
2018-12-22T17:09:41.438Z,57.85
2018-12-22T17:13:45.902Z,57.44
2018-12-22T17:17:50.028Z,58.51
2018-12-22T17:21:54.106Z,58.23
2018-12-22T17:26:00.217Z,58.44
2018-12-22T17:30:07.285Z,58.33
2018-12-22T17:34:11.508Z,58.25
2018-12-22T17:38:15.614Z,57.80
2018-12-22T17:42:20.781Z,57.74
2018-12-22T17:46:25.064Z,57.65
2018-12-22T17:50:29.147Z,57.32
2018-12-22T17:54:33.245Z,57.10
2018-12-22T17:58:37.585Z,56.27
2018-12-22T18:02:46.394Z,56.88
2018-12-22T18:06:50.486Z,56.32
2018-12-22T18:10:54.570Z,56.54
2018-12-22T18:14:58.775Z,56.69
2018-12-22T18:19:02.898Z,56.37
2018-12-22T18:23:07.023Z,56.49
2018-12-22T18:27:11.144Z,56.06
2018-12-22T18:31:15.291Z,57.15
2018-12-22T18:35:19.390Z,56.90
2018-12-22T18:39:23.481Z,56.26
2018-12-22T18:43:27.637Z,56.61
2018-12-22T18:47:31.705Z,57.21
2018-12-22T18:51:35.806Z,57.00
2018-12-22T18:55:39.902Z,57.02
2018-12-22T18:59:44.021Z,56.47
2018-12-22T19:03:48.103Z,55.72
2018-12-22T19:07:52.375Z,55.81
2018-12-22T19:11:56.484Z,55.88
2018-12-22T19:16:00.570Z,55.59
2018-12-22T19:20:16.354Z,54.79
2018-12-22T19:24:20.449Z,55.28
2018-12-22T19:28:24.863Z,54.38
2018-12-22T19:32:28.975Z,54.65
2018-12-22T19:36:33.099Z,54.23
2018-12-22T19:40:37.225Z,53.84
2018-12-22T19:44:41.324Z,53.95
2018-12-22T19:48:45.426Z,54.40
2018-12-22T19:52:49.522Z,54.06
2018-12-22T19:56:53.600Z,54.50
2018-12-22T20:00:58.011Z,55.59
2018-12-22T20:05:02.107Z,55.61
2018-12-22T20:09:06.325Z,54.98
2018-12-22T20:13:10.432Z,54.65
2018-12-22T20:17:14.509Z,54.60
2018-12-22T20:21:18.597Z,53.67
2018-12-22T20:25:22.695Z,54.62
2018-12-22T20:29:26.784Z,54.82
2018-12-22T20:33:30.867Z,54.62
2018-12-22T20:37:34.941Z,54.39
2018-12-22T20:41:39.083Z,54.77
2018-12-22T20:45:43.228Z,54.38
2018-12-22T20:49:47.319Z,53.70
2018-12-22T20:53:52.308Z,54.08
2018-12-22T20:57:56.403Z,53.96
2018-12-22T21:02:00.509Z,54.44
2018-12-22T21:06:04.873Z,53.93
2018-12-22T21:10:09.054Z,54.23
2018-12-22T21:14:13.121Z,54.72
2018-12-22T21:18:17.234Z,54.87
2018-12-22T21:22:21.350Z,55.32
2018-12-22T21:26:25.432Z,55.65
2018-12-22T21:30:29.560Z,55.39
2018-12-22T21:34:34.006Z,54.46
2018-12-22T21:38:38.931Z,54.56
2018-12-22T21:42:43.023Z,54.39
2018-12-22T21:46:47.276Z,54.64
2018-12-22T21:50:51.336Z,54.68
2018-12-22T21:54:55.424Z,54.81
2018-12-22T21:58:59.514Z,55.03
2018-12-22T22:03:03.620Z,54.69
2018-12-22T22:07:07.699Z,54.18
2018-12-22T22:11:11.790Z,54.38
2018-12-22T22:15:15.902Z,54.56
2018-12-22T22:19:20.057Z,54.13
2018-12-22T22:23:48.030Z,54.13
2018-12-22T22:27:52.113Z,54.19
2018-12-22T22:31:56.328Z,54.52
2018-12-22T22:36:00.404Z,54.42
2018-12-22T22:40:05.733Z,54.23
2018-12-22T22:44:11.455Z,54.39
2018-12-22T22:48:15.592Z,54.32
2018-12-22T22:52:47.161Z,54.18
2018-12-22T22:56:51.279Z,53.96
2018-12-22T23:00:55.366Z,53.84
2018-12-22T23:04:59.475Z,53.84
2018-12-22T23:09:05.096Z,54.10
2018-12-22T23:13:09.281Z,55.05
2018-12-22T23:17:13.363Z,54.80
2018-12-22T23:21:17.454Z,55.15
2018-12-22T23:25:21.553Z,54.97
2018-12-22T23:29:25.650Z,55.01
2018-12-22T23:33:29.734Z,54.69
2018-12-22T23:37:33.832Z,54.61
2018-12-22T23:41:48.681Z,54.77
2018-12-22T23:45:52.805Z,54.33
2018-12-22T23:49:56.977Z,54.23
2018-12-22T23:54:01.082Z,54.18
2018-12-22T23:58:05.177Z,53.90
